WTN15 EGNO-EGNO

Flight info

Callsign WTN15
Flight time N/A
Altitude 40000
Route EGNO
Aircraft EUFI/M-SDGHITUY/LB1

Departure

Time 2026-05-04 15:28
Airport Warton Aerodrome (EGNO)

Arrival

Time N/A
Airport Warton Aerodrome (EGNO)
Time Latitude Longitude Altitude Speed Heading
2026-05-04 15:19 53.74108 -2.88054 40 ft 0 kts 242°
2026-05-04 15:23 53.74106 -2.88062 40 ft 11 kts 253°
2026-05-04 15:23 53.74131 -2.88185 41 ft 11 kts 312°
2026-05-04 15:23 53.74196 -2.88245 43 ft 8 kts 330°
2026-05-04 15:24 53.74281 -2.88363 46 ft 10 kts 330°
2026-05-04 15:24 53.74407 -2.88128 50 ft 27 kts 63°
2026-05-04 15:25 53.74463 -2.87959 53 ft 11 kts 56°
2026-05-04 15:25 53.74514 -2.87831 52 ft 15 kts 56°
2026-05-04 15:25 53.74577 -2.87678 53 ft 15 kts 48°
2026-05-04 15:26 53.74726 -2.87245 53 ft 36 kts 72°
2026-05-04 15:26 53.74801 -2.86867 57 ft 32 kts 71°
2026-05-04 15:26 53.74826 -2.86720 58 ft 8 kts 277°
2026-05-04 15:27 53.74823 -2.86754 58 ft 0 kts 251°
2026-05-04 15:27 53.74554 -2.88087 127 ft 254 kts 253°
2026-05-04 15:28 53.72807 -2.95774 11806 ft 437 kts 246°
2026-05-04 15:28 53.71344 -3.01039 12836 ft 514 kts 239°
2026-05-04 15:28 53.65560 -3.07236 15163 ft 530 kts 179°
2026-05-04 15:29 53.62129 -3.05088 16444 ft 542 kts 137°
2026-05-04 15:30 53.66622 -2.87111 17857 ft 452 kts 46°
2026-05-04 15:30 53.71947 -2.74150 17984 ft 452 kts 67°
2026-05-04 15:31 53.74236 -2.64235 18059 ft 453 kts 69°
2026-05-04 15:31 53.75334 -2.59243 18069 ft 453 kts 70°
2026-05-04 15:32 53.80767 -2.46809 18077 ft 455 kts 32°
2026-05-04 15:32 53.86148 -2.41224 18066 ft 453 kts 30°
2026-05-04 15:33 53.91567 -2.35787 18065 ft 452 kts 30°
2026-05-04 15:34 53.99711 -2.27628 18060 ft 454 kts 30°
2026-05-04 15:34 54.02427 -2.24897 18059 ft 453 kts 30°
2026-05-04 15:34 54.07861 -2.19418 18055 ft 453 kts 30°
2026-05-04 15:35 54.13268 -2.13869 18045 ft 453 kts 35°
2026-05-04 15:35 54.15478 -2.10026 17996 ft 463 kts 52°
2026-05-04 15:35 54.17259 -2.05576 16958 ft 453 kts 57°
2026-05-04 15:36 54.20436 -1.96459 15445 ft 443 kts 59°
2026-05-04 15:36 54.21954 -1.91929 14718 ft 437 kts 59°
2026-05-04 15:36 54.23452 -1.87423 14004 ft 433 kts 60°
2026-05-04 15:37 54.24926 -1.82966 13232 ft 430 kts 60°
2026-05-04 15:37 54.26384 -1.78542 12443 ft 424 kts 60°
2026-05-04 15:37 54.27822 -1.74170 11677 ft 419 kts 60°
2026-05-04 15:37 54.29243 -1.69843 10940 ft 416 kts 60°
2026-05-04 15:38 54.30641 -1.65598 8315 ft 410 kts 59°
2026-05-04 15:38 54.32062 -1.61306 5532 ft 414 kts 60°
2026-05-04 15:38 54.32864 -1.56879 4086 ft 382 kts 93°
2026-05-04 15:38 54.31797 -1.52858 3270 ft 373 kts 127°
2026-05-04 15:39 54.30255 -1.49303 2772 ft 368 kts 128°
2026-05-04 15:39 54.28310 -1.47463 1986 ft 339 kts 211°
2026-05-04 15:39 54.28849 -1.55022 1243 ft 364 kts 298°
2026-05-04 15:40 54.30134 -1.58706 1744 ft 359 kts 306°
2026-05-04 15:40 54.31791 -1.61647 2180 ft 308 kts 314°
2026-05-04 15:40 54.33155 -1.63907 2440 ft 264 kts 314°
2026-05-04 15:40 54.34537 -1.65858 2545 ft 258 kts 340°
2026-05-04 15:41 54.36108 -1.65005 2306 ft 251 kts 69°
2026-05-04 15:41 54.36024 -1.61883 1642 ft 242 kts 100°
2026-05-04 15:41 54.35781 -1.59465 1348 ft 199 kts 106°
2026-05-04 15:41 54.34971 -1.57786 1055 ft 194 kts 159°
2026-05-04 15:42 54.33749 -1.56993 878 ft 185 kts 158°
2026-05-04 15:42 54.32561 -1.56078 691 ft 187 kts 156°
2026-05-04 15:42 54.31397 -1.55192 400 ft 162 kts 155°
2026-05-04 15:42 54.30445 -1.54456 234 ft 161 kts 155°
2026-05-04 15:43 54.29566 -1.53739 640 ft 276 kts 155°
2026-05-04 15:43 54.27072 -1.52533 1497 ft 437 kts 189°
2026-05-04 15:43 54.25257 -1.55950 1621 ft 423 kts 265°
2026-05-04 15:43 54.26285 -1.60589 1342 ft 438 kts 299°
2026-05-04 15:44 54.27987 -1.65551 1333 ft 487 kts 300°
2026-05-04 15:44 54.29693 -1.70474 1476 ft 480 kts 300°
2026-05-04 15:44 54.31228 -1.75495 2007 ft 478 kts 282°
2026-05-04 15:44 54.30992 -1.81113 2188 ft 476 kts 259°
2026-05-04 15:45 54.30386 -1.86644 1726 ft 473 kts 259°
2026-05-04 15:45 54.29828 -1.92189 1834 ft 475 kts 261°
2026-05-04 15:45 54.29501 -1.97750 1888 ft 471 kts 272°
2026-05-04 15:45 54.30148 -2.03251 1735 ft 471 kts 283°
2026-05-04 15:46 54.30934 -2.08700 1453 ft 464 kts 276°
2026-05-04 15:46 54.30522 -2.14233 1851 ft 468 kts 261°
2026-05-04 15:46 54.30797 -2.19759 1802 ft 473 kts 291°
2026-05-04 15:46 54.32056 -2.24924 1783 ft 474 kts 292°
2026-05-04 15:47 54.33103 -2.30218 1919 ft 470 kts 292°
2026-05-04 15:47 54.35473 -2.33940 1703 ft 473 kts 329°
2026-05-04 15:47 54.38552 -2.33959 1419 ft 479 kts 18°
2026-05-04 15:47 54.41827 -2.33680 1825 ft 476 kts 349°
2026-05-04 15:48 54.44611 -2.36435 2466 ft 462 kts 302°
2026-05-04 15:48 54.43389 -2.40647 2550 ft 486 kts 188°
2026-05-04 15:48 54.37416 -2.44470 1312 ft 467 kts 242°
2026-05-04 15:49 54.34998 -2.47625 1218 ft 480 kts 190°
2026-05-04 15:49 54.32693 -2.51120 1007 ft 464 kts 260°
2026-05-04 15:49 54.32463 -2.56667 1824 ft 467 kts 266°
2026-05-04 15:49 54.32243 -2.62239 2314 ft 469 kts 266°
2026-05-04 15:50 54.32027 -2.67858 2702 ft 470 kts 266°
2026-05-04 15:50 54.31836 -2.73489 2932 ft 475 kts 270°
2026-05-04 15:50 54.32261 -2.79090 2930 ft 474 kts 285°
2026-05-04 15:50 54.33743 -2.83931 2353 ft 471 kts 322°
2026-05-04 15:51 54.36776 -2.86081 1652 ft 471 kts 339°
2026-05-04 15:51 54.39151 -2.89604 1480 ft 466 kts 303°
2026-05-04 15:51 54.41950 -2.90608 963 ft 480 kts 38°
2026-05-04 15:51 54.44833 -2.90634 1722 ft 470 kts 301°
2026-05-04 15:52 54.47466 -2.92122 1635 ft 484 kts
2026-05-04 15:52 54.50716 -2.92290 1079 ft 480 kts
2026-05-04 15:52 54.53854 -2.93539 1135 ft 474 kts 333°
2026-05-04 15:52 54.56767 -2.93023 1108 ft 484 kts 59°
2026-05-04 15:53 54.57699 -2.87511 940 ft 482 kts 83°
2026-05-04 15:53 54.59928 -2.83815 1531 ft 481 kts 29°
2026-05-04 15:53 54.62052 -2.79501 2446 ft 499 kts 84°